KMYF/MYF METAR and TAF weather

Enter ICAO airport designator
Station Type Date Time Source
KMYF METAR 2022/07/03 14:53 UTC NOAA

KMYF 031453Z 00000KT 10SM OVC022 19/12 A2995 RMK AO2 SLP138 T01940122 52005


Station Type Date Time Source
KMYF Decoded METAR 2022/07/03 14:53 UTC NOAA

SAN DIEGO MONTGOMERY FIELD, CA, United States (KMYF) 32-49N 117-08W 136M
Jul 03, 2022 - 10:53 AM EDT / 2022.07.03 1453 UTC
Wind: Calm:0
Visibility: 10 mile(s):0
Sky conditions: overcast
Temperature: 66.9 F (19.4 C)
Dew Point: 54.0 F (12.2 C)
Relative Humidity: 63%
Pressure (altimeter): 29.95 in. Hg (1014 hPa)
Pressure tendency: 0.01 inches (0.5 hPa) higher than three hours ago
ob: KMYF 031453Z 00000KT 10SM OVC022 19/12 A2995 RMK AO2 SLP138 T01940122 52005
cycle: 15

Station Type Date Time Source
KMYF TAF UTC NOAA

Error!

Example: see airport list